createdAt,value
2018-11-04T00:01:39.636Z,18.97
2018-11-04T00:04:19.901Z,18.70
2018-11-04T00:06:48.935Z,18.10
2018-11-04T00:09:20.813Z,16.90
2018-11-04T00:11:49.898Z,19.43
2018-11-04T00:14:20.763Z,17.97
2018-11-04T00:16:49.705Z,18.43
2018-11-04T00:19:23.373Z,16.50
2018-11-04T00:21:52.414Z,17.50
2018-11-04T00:24:21.469Z,16.20
2018-11-04T00:26:50.389Z,16.93
2018-11-04T00:29:19.600Z,17.20
2018-11-04T00:31:54.203Z,17.07
2018-11-04T00:34:39.465Z,15.23
2018-11-04T00:37:09.108Z,17.37
2018-11-04T00:39:48.945Z,17.20
2018-11-04T00:45:22.164Z,17.90
2018-11-04T00:47:55.853Z,17.33
2018-11-04T00:50:27.960Z,18.10
2018-11-04T00:52:59.368Z,17.67
2018-11-04T00:55:31.366Z,15.70
2018-11-04T00:58:01.245Z,17.50
2018-11-04T01:00:50.158Z,17.97
2018-11-04T01:03:23.016Z,18.50
2018-11-04T01:05:52.022Z,17.17
2018-11-04T01:08:21.088Z,17.20
2018-11-04T01:10:50.075Z,17.17
2018-11-04T01:13:23.546Z,18.23
2018-11-04T01:16:11.634Z,17.60
2018-11-04T01:18:45.869Z,17.90
2018-11-04T01:21:21.634Z,18.93
2018-11-04T01:24:10.237Z,17.20
2018-11-04T01:26:39.275Z,17.70
2018-11-04T01:29:08.460Z,18.40
2018-11-04T01:31:37.433Z,16.93
2018-11-04T01:34:06.746Z,17.80
2018-11-04T01:36:35.726Z,18.20
2018-11-04T01:39:56.276Z,18.20
2018-11-04T01:43:02.072Z,17.53
2018-11-04T01:45:50.443Z,16.83
2018-11-04T01:48:19.448Z,17.73
2018-11-04T01:50:48.454Z,19.20
2018-11-04T01:53:17.399Z,19.77
2018-11-04T01:55:46.422Z,19.17
2018-11-04T01:58:33.943Z,18.80
2018-11-04T02:01:02.974Z,20.73
2018-11-04T02:03:42.860Z,19.90
2018-11-04T02:06:12.156Z,18.93
2018-11-04T02:08:41.182Z,19.73
2018-11-04T02:14:04.057Z,22.20
2018-11-04T02:16:33.089Z,20.07
2018-11-04T02:19:02.010Z,20.97
2018-11-04T02:22:03.937Z,20.83
2018-11-04T02:24:32.974Z,19.67
2018-11-04T02:27:18.541Z,20.80
2018-11-04T02:29:49.929Z,20.30
2018-11-04T02:32:19.807Z,21.10
2018-11-04T02:35:00.074Z,21.50
2018-11-04T02:37:29.210Z,21.07
2018-11-04T02:40:04.244Z,19.70
2018-11-04T02:42:33.223Z,20.77
2018-11-04T02:45:02.203Z,20.20
2018-11-04T02:47:31.380Z,20.90
2018-11-04T02:50:06.718Z,19.40
2018-11-04T02:52:41.413Z,20.00
2018-11-04T02:55:26.276Z,21.10
2018-11-04T02:57:55.219Z,21.50
2018-11-04T03:00:53.024Z,20.53
2018-11-04T03:03:40.906Z,20.70
2018-11-04T03:06:09.952Z,21.10
2018-11-04T03:08:55.441Z,20.90
2018-11-04T03:11:24.539Z,20.83
2018-11-04T03:13:53.471Z,21.57
2018-11-04T03:16:33.090Z,21.00
2018-11-04T03:19:02.027Z,20.60
2018-11-04T03:21:33.069Z,21.87
2018-11-04T03:24:02.069Z,22.57
2018-11-04T03:26:34.717Z,21.80
2018-11-04T03:29:22.454Z,22.87
2018-11-04T03:31:51.470Z,22.73
2018-11-04T03:37:53.513Z,21.50
2018-11-04T03:40:22.568Z,23.80
2018-11-04T03:42:51.681Z,23.20
2018-11-04T03:45:21.285Z,22.57
2018-11-04T03:47:50.360Z,22.90
2018-11-04T03:50:19.477Z,23.23
2018-11-04T03:52:54.027Z,22.57
2018-11-04T03:55:24.321Z,23.37
2018-11-04T04:01:01.212Z,23.73
2018-11-04T04:03:30.197Z,23.17
2018-11-04T04:06:13.649Z,24.67
2018-11-04T04:08:44.654Z,25.27
2018-11-04T04:11:25.679Z,24.60
2018-11-04T04:13:55.310Z,24.37
2018-11-04T04:16:24.368Z,24.47
2018-11-04T04:18:53.329Z,23.97
2018-11-04T04:21:22.376Z,24.53
2018-11-04T04:24:32.468Z,22.83
2018-11-04T04:27:12.213Z,23.23
2018-11-04T04:29:42.267Z,25.23
2018-11-04T04:32:46.614Z,25.43
2018-11-04T04:35:15.540Z,24.37
2018-11-04T04:40:43.453Z,23.67
2018-11-04T04:43:13.859Z,23.67
2018-11-04T04:45:48.813Z,23.83
2018-11-04T04:48:17.804Z,24.20
2018-11-04T04:50:46.860Z,24.67
2018-11-04T04:53:15.881Z,23.63
2018-11-04T04:55:44.986Z,20.87
2018-11-04T04:58:14.191Z,24.43
2018-11-04T05:00:49.568Z,26.60
2018-11-04T05:03:18.623Z,24.33
2018-11-04T05:05:47.603Z,25.70
2018-11-04T05:08:16.710Z,24.67
2018-11-04T05:10:45.584Z,27.23
2018-11-04T05:13:15.624Z,23.97
2018-11-04T05:15:46.049Z,25.33
2018-11-04T05:18:21.029Z,25.17
2018-11-04T05:20:50.139Z,23.10
2018-11-04T05:23:19.154Z,24.40
2018-11-04T05:25:49.643Z,24.40
2018-11-04T05:28:20.632Z,23.93
2018-11-04T05:30:49.789Z,22.87
2018-11-04T05:33:18.911Z,23.30
2018-11-04T05:35:50.129Z,23.33
2018-11-04T05:38:19.141Z,23.27
2018-11-04T05:40:48.137Z,21.90
2018-11-04T05:43:17.473Z,22.10
2018-11-04T05:45:46.419Z,21.50
2018-11-04T05:48:15.635Z,21.90
2018-11-04T05:50:44.712Z,22.20
2018-11-04T05:53:25.718Z,22.73
2018-11-04T05:55:58.146Z,23.07
2018-11-04T05:58:27.487Z,21.63
2018-11-04T06:00:59.187Z,22.03
2018-11-04T06:03:28.110Z,22.77
2018-11-04T06:05:57.180Z,23.53
2018-11-04T06:08:42.701Z,20.93
2018-11-04T06:11:11.660Z,22.00
2018-11-04T06:16:28.479Z,22.97
2018-11-04T06:18:57.499Z,22.10
2018-11-04T06:27:27.564Z,21.20
2018-11-04T06:29:56.565Z,22.03
2018-11-04T06:35:01.525Z,22.47
2018-11-04T06:37:30.493Z,23.20
2018-11-04T06:40:29.750Z,22.67
2018-11-04T06:42:58.754Z,23.80
2018-11-04T06:45:27.782Z,22.10
2018-11-04T06:47:57.572Z,21.77
2018-11-04T06:50:34.469Z,22.50
2018-11-04T06:53:07.111Z,21.63
2018-11-04T06:55:36.568Z,21.37
2018-11-04T06:58:25.660Z,20.73
2018-11-04T07:00:54.602Z,22.43
2018-11-04T07:03:25.669Z,19.73
2018-11-04T07:05:54.638Z,22.00
2018-11-04T07:08:23.751Z,21.50
2018-11-04T07:10:52.766Z,20.27
2018-11-04T07:13:22.443Z,20.80
2018-11-04T07:16:24.476Z,19.80
2018-11-04T07:18:53.408Z,20.47
2018-11-04T07:24:14.961Z,20.13
2018-11-04T07:26:43.934Z,19.70
2018-11-04T07:29:19.014Z,20.83
2018-11-04T07:31:48.577Z,20.53
2018-11-04T07:34:17.599Z,21.10
2018-11-04T07:36:57.464Z,20.10
2018-11-04T07:39:26.542Z,20.67
2018-11-04T07:44:55.937Z,19.50
2018-11-04T07:47:25.031Z,19.47
2018-11-04T07:50:01.205Z,22.27
2018-11-04T07:52:30.297Z,19.70
2018-11-04T07:54:59.294Z,23.03
2018-11-04T07:57:29.085Z,21.40
2018-11-04T07:59:58.329Z,19.73
2018-11-04T08:02:27.271Z,20.23
2018-11-04T08:05:00.220Z,22.23
2018-11-04T08:07:31.936Z,20.33
2018-11-04T08:10:00.964Z,21.50
2018-11-04T08:12:29.914Z,21.50
2018-11-04T08:14:58.907Z,20.73
2018-11-04T08:17:27.895Z,20.20
2018-11-04T08:19:56.892Z,21.47
2018-11-04T08:22:27.306Z,20.47
2018-11-04T08:24:56.310Z,21.43
2018-11-04T08:27:27.270Z,21.20
2018-11-04T08:29:56.292Z,21.40
2018-11-04T08:32:40.801Z,21.40
2018-11-04T08:35:09.801Z,20.47
2018-11-04T08:37:49.697Z,24.23
2018-11-04T08:40:34.615Z,20.43
2018-11-04T08:43:03.572Z,19.50
2018-11-04T08:45:48.995Z,20.70
2018-11-04T08:48:18.095Z,21.77
2018-11-04T08:50:47.075Z,23.17
2018-11-04T08:53:26.441Z,21.97
2018-11-04T08:56:01.441Z,20.30
2018-11-04T08:58:33.051Z,21.60
2018-11-04T09:01:02.090Z,21.57
2018-11-04T09:03:31.055Z,22.37
2018-11-04T09:06:00.048Z,22.23
2018-11-04T09:08:44.993Z,22.37
2018-11-04T09:11:14.056Z,21.07
2018-11-04T09:13:47.295Z,20.37
2018-11-04T09:16:16.518Z,21.70
2018-11-04T09:18:45.491Z,21.80
2018-11-04T09:21:20.989Z,22.30
2018-11-04T09:23:50.230Z,21.70
2018-11-04T09:26:26.375Z,21.47
2018-11-04T09:28:59.499Z,22.30
2018-11-04T09:31:50.903Z,22.70
2018-11-04T09:34:20.009Z,22.10
2018-11-04T09:36:49.109Z,23.07
2018-11-04T09:39:32.008Z,23.07
2018-11-04T09:42:06.997Z,23.67
2018-11-04T09:44:35.923Z,24.37
2018-11-04T09:47:05.180Z,21.73
2018-11-04T09:49:34.713Z,23.03
2018-11-04T09:52:09.990Z,23.13
2018-11-04T09:54:38.960Z,22.77
2018-11-04T09:57:17.457Z,22.40
2018-11-04T09:59:48.695Z,23.47
2018-11-04T10:02:17.820Z,23.50
2018-11-04T10:04:47.775Z,22.90
2018-11-04T10:07:16.743Z,22.60
2018-11-04T10:09:45.816Z,22.77
2018-11-04T10:12:23.627Z,22.67
2018-11-04T10:17:45.289Z,23.93
2018-11-04T10:20:42.751Z,21.83
2018-11-04T10:23:11.433Z,25.13
2018-11-04T10:31:37.841Z,24.77
2018-11-04T10:34:06.792Z,24.77
2018-11-04T10:37:29.281Z,23.50
2018-11-04T10:42:38.482Z,23.10
2018-11-04T10:45:08.412Z,24.17
2018-11-04T10:47:43.863Z,23.17
2018-11-04T10:53:00.836Z,24.67
2018-11-04T10:55:29.810Z,23.93
2018-11-04T10:57:58.821Z,25.60
2018-11-04T11:03:16.064Z,24.13
2018-11-04T11:06:20.365Z,24.50
2018-11-04T11:08:49.475Z,24.13
2018-11-04T11:11:53.804Z,24.53
2018-11-04T11:14:24.926Z,24.13
2018-11-04T11:16:54.917Z,23.43
2018-11-04T11:19:37.382Z,23.93
2018-11-04T11:22:08.076Z,23.30
2018-11-04T11:24:42.186Z,23.33
2018-11-04T11:27:11.191Z,23.60
2018-11-04T11:29:40.219Z,25.53
2018-11-04T11:32:11.781Z,24.30
2018-11-04T11:34:41.538Z,23.90
2018-11-04T11:37:14.092Z,23.97
2018-11-04T11:39:44.702Z,25.83
2018-11-04T11:42:13.642Z,25.43
2018-11-04T11:44:42.694Z,25.20
2018-11-04T11:47:14.681Z,25.13
2018-11-04T11:49:43.675Z,24.83
2018-11-04T11:52:13.088Z,27.10
2018-11-04T11:55:08.250Z,27.97
2018-11-04T11:57:40.454Z,25.87
2018-11-04T12:00:11.054Z,24.60
2018-11-04T12:02:40.651Z,26.00
2018-11-04T12:05:24.971Z,24.63
2018-11-04T12:07:54.245Z,26.87
2018-11-04T12:10:34.263Z,26.20
2018-11-04T12:13:03.300Z,27.87
2018-11-04T12:18:41.966Z,25.53
2018-11-04T12:21:52.155Z,23.73
2018-11-04T12:24:21.241Z,25.23
2018-11-04T12:26:54.647Z,26.10
2018-11-04T12:29:23.616Z,25.93
2018-11-04T12:31:52.734Z,25.77
2018-11-04T12:37:02.763Z,26.83
2018-11-04T12:39:57.230Z,27.33
2018-11-04T12:42:28.105Z,26.80
2018-11-04T12:44:57.121Z,25.33
2018-11-04T12:47:26.168Z,26.33
2018-11-04T12:49:56.125Z,24.97
2018-11-04T12:52:25.156Z,27.43
2018-11-04T12:54:54.196Z,27.43
2018-11-04T12:57:51.673Z,26.30
2018-11-04T13:00:20.650Z,27.20
2018-11-04T13:02:57.898Z,25.40
2018-11-04T13:05:30.557Z,28.07
2018-11-04T13:08:18.572Z,27.97
2018-11-04T13:14:05.898Z,26.50
2018-11-04T13:16:35.089Z,25.37
2018-11-04T13:19:07.871Z,28.77
2018-11-04T13:21:36.894Z,27.40
2018-11-04T13:24:06.009Z,27.37
2018-11-04T13:26:34.960Z,28.30
2018-11-04T13:29:07.460Z,25.80
2018-11-04T13:31:37.709Z,25.87
2018-11-04T13:34:07.294Z,25.97
2018-11-04T13:36:36.249Z,26.47
2018-11-04T13:39:07.166Z,25.87
2018-11-04T13:41:36.159Z,26.10
2018-11-04T13:44:05.303Z,24.53
2018-11-04T13:46:34.259Z,26.17
2018-11-04T13:49:03.445Z,25.60
2018-11-04T13:51:32.866Z,25.00
2018-11-04T13:54:01.843Z,24.97
2018-11-04T13:56:30.932Z,25.57
2018-11-04T13:58:59.946Z,27.20
2018-11-04T14:01:28.958Z,26.10
2018-11-04T14:03:58.037Z,26.70
2018-11-04T14:06:26.990Z,27.50
2018-11-04T14:08:56.136Z,27.20
2018-11-04T14:11:25.086Z,24.60
2018-11-04T14:13:54.535Z,26.40
2018-11-04T14:16:23.681Z,27.17
2018-11-04T14:18:53.208Z,28.87
2018-11-04T14:21:22.307Z,27.87
2018-11-04T14:23:51.329Z,27.40
2018-11-04T14:26:20.366Z,26.27
2018-11-04T14:28:49.463Z,25.83
2018-11-04T14:31:18.564Z,26.83
2018-11-04T14:33:47.550Z,27.53
2018-11-04T14:36:16.552Z,26.10
2018-11-04T14:38:45.513Z,26.70
2018-11-04T14:41:14.535Z,27.43
2018-11-04T14:43:43.623Z,26.60
2018-11-04T14:46:12.637Z,26.53
2018-11-04T14:48:41.599Z,28.13
2018-11-04T14:51:10.721Z,24.73
2018-11-04T14:53:39.693Z,26.20
2018-11-04T14:56:08.789Z,23.33
2018-11-04T14:58:37.764Z,24.07
2018-11-04T15:01:06.971Z,24.67
2018-11-04T15:03:35.839Z,25.40
2018-11-04T15:06:04.969Z,24.90
2018-11-04T15:08:33.933Z,24.37
2018-11-04T15:11:02.956Z,24.87
2018-11-04T15:13:31.944Z,24.53
2018-11-04T15:16:01.103Z,26.60
2018-11-04T15:18:30.285Z,24.83
2018-11-04T15:20:59.213Z,27.20
2018-11-04T15:23:28.214Z,25.57
2018-11-04T15:25:57.199Z,24.63
2018-11-04T15:28:26.289Z,26.27
2018-11-04T15:30:55.270Z,25.43
2018-11-04T15:33:24.276Z,23.47
2018-11-04T15:35:53.267Z,24.67
2018-11-04T15:38:22.303Z,24.40
2018-11-04T15:40:51.349Z,24.30
2018-11-04T15:43:20.590Z,22.60
2018-11-04T15:45:49.628Z,22.53
2018-11-04T15:48:18.629Z,22.70
2018-11-04T15:50:47.614Z,27.20
2018-11-04T15:53:16.626Z,23.70
2018-11-04T15:55:46.108Z,23.67
2018-11-04T15:58:15.512Z,24.30
2018-11-04T16:00:44.496Z,23.77
2018-11-04T16:03:13.502Z,23.73
2018-11-04T16:05:43.104Z,22.73
2018-11-04T16:08:12.090Z,23.73
2018-11-04T16:10:41.098Z,26.07
2018-11-04T16:13:10.176Z,24.80
2018-11-04T16:15:39.177Z,25.90
2018-11-04T16:18:08.280Z,24.53
2018-11-04T16:20:37.740Z,25.00
2018-11-04T16:23:06.861Z,27.13
2018-11-04T16:25:35.906Z,26.77
2018-11-04T16:28:04.933Z,25.80
2018-11-04T16:30:33.947Z,26.30
2018-11-04T16:33:02.940Z,28.70
2018-11-04T16:35:31.944Z,26.53
2018-11-04T16:38:01.028Z,27.63
2018-11-04T16:40:29.917Z,28.60
2018-11-04T16:42:58.889Z,28.57
2018-11-04T16:45:28.336Z,27.73
2018-11-04T16:47:57.386Z,28.13
2018-11-04T16:50:26.382Z,29.03
2018-11-04T16:52:55.380Z,29.07
2018-11-04T16:55:24.364Z,30.87
2018-11-04T16:57:53.454Z,30.70
2018-11-04T17:00:22.571Z,28.47
2018-11-04T17:02:51.530Z,30.93
2018-11-04T17:05:20.751Z,28.80
2018-11-04T17:07:49.642Z,28.37
2018-11-04T17:10:18.617Z,31.20
2018-11-04T17:12:47.712Z,30.33
2018-11-04T17:15:17.096Z,28.67
2018-11-04T17:17:46.122Z,27.77
2018-11-04T17:20:17.038Z,27.27
2018-11-04T17:22:46.384Z,27.87
2018-11-04T17:25:15.437Z,27.47
2018-11-04T17:27:44.657Z,27.07
2018-11-04T17:30:15.800Z,25.80
2018-11-04T17:32:44.924Z,26.90
2018-11-04T17:35:14.629Z,28.30
2018-11-04T17:37:44.342Z,25.80
2018-11-04T17:40:14.153Z,25.47
2018-11-04T17:42:43.516Z,23.83
2018-11-04T17:45:13.853Z,25.00
2018-11-04T17:47:43.007Z,27.00
2018-11-04T17:50:14.812Z,25.83
2018-11-04T17:52:44.188Z,27.60
2018-11-04T17:55:13.631Z,25.13
2018-11-04T17:57:42.576Z,25.33
2018-11-04T18:00:12.393Z,25.47
2018-11-04T18:02:42.407Z,25.17
2018-11-04T18:05:12.155Z,23.30
2018-11-04T18:07:41.530Z,23.50
2018-11-04T18:10:11.208Z,22.90
2018-11-04T18:12:40.325Z,23.10
2018-11-04T18:15:10.055Z,23.50
2018-11-04T18:17:39.076Z,26.20
2018-11-04T18:20:09.124Z,23.67
2018-11-04T18:22:38.127Z,24.40
2018-11-04T18:25:08.770Z,25.70
2018-11-04T18:27:37.734Z,25.90
2018-11-04T18:30:08.871Z,25.37
2018-11-04T18:32:37.885Z,24.33
2018-11-04T18:35:07.074Z,25.40
2018-11-04T18:37:36.058Z,26.07
2018-11-04T18:40:05.865Z,26.10
2018-11-04T18:42:34.858Z,26.07
2018-11-04T18:45:04.256Z,26.10
2018-11-04T18:47:33.233Z,26.20
2018-11-04T18:50:02.257Z,24.13
2018-11-04T18:52:31.876Z,26.13
2018-11-04T18:55:01.104Z,25.10
2018-11-04T18:57:30.233Z,25.73
2018-11-04T18:59:59.358Z,25.83
2018-11-04T19:02:29.096Z,24.07
2018-11-04T19:04:58.157Z,25.40
2018-11-04T19:07:27.525Z,23.63
2018-11-04T19:09:56.533Z,27.00
2018-11-04T19:12:25.507Z,26.10
2018-11-04T19:14:54.621Z,25.17
2018-11-04T19:17:23.600Z,24.20
2018-11-04T19:19:52.615Z,23.53
2018-11-04T19:22:21.686Z,22.00
2018-11-04T19:24:51.511Z,21.77
2018-11-04T19:27:20.604Z,22.70
2018-11-04T19:29:49.731Z,22.30
2018-11-04T19:32:18.774Z,22.57
2018-11-04T19:34:47.899Z,22.97
2018-11-04T19:37:16.926Z,23.20
2018-11-04T19:39:45.876Z,23.77
2018-11-04T19:42:14.912Z,23.53
2018-11-04T19:44:43.847Z,24.80
2018-11-04T19:47:12.812Z,22.50
2018-11-04T19:49:41.833Z,22.90
2018-11-04T19:52:10.791Z,22.13
2018-11-04T19:54:39.817Z,22.60
2018-11-04T19:57:15.557Z,24.07
2018-11-04T19:59:44.859Z,23.70
2018-11-04T20:02:14.146Z,23.27
2018-11-04T20:04:43.487Z,23.57
2018-11-04T20:07:12.936Z,23.30
2018-11-04T20:09:42.480Z,23.17
2018-11-04T20:12:16.946Z,22.40
2018-11-04T20:14:46.202Z,22.50
2018-11-04T20:17:15.508Z,24.63
2018-11-04T20:19:50.266Z,22.60
2018-11-04T20:22:19.726Z,22.90
2018-11-04T20:24:54.056Z,23.90
2018-11-04T20:27:23.378Z,24.20
2018-11-04T20:29:52.611Z,22.50
2018-11-04T20:32:27.147Z,23.30
2018-11-04T20:34:56.374Z,23.67
2018-11-04T20:37:25.799Z,23.30
2018-11-04T20:40:00.085Z,22.60
2018-11-04T20:42:29.900Z,23.10
2018-11-04T20:44:59.351Z,22.23
2018-11-04T20:47:33.676Z,23.50
2018-11-04T20:50:08.093Z,23.27
2018-11-04T20:52:37.349Z,23.67
2018-11-04T20:55:06.783Z,21.90
2018-11-04T20:57:40.692Z,24.70
2018-11-04T21:00:12.551Z,25.03
2018-11-04T21:02:42.079Z,24.90
2018-11-04T21:05:11.467Z,21.73
2018-11-04T21:07:40.737Z,23.93
2018-11-04T21:10:10.714Z,25.90
2018-11-04T21:12:40.168Z,24.93
2018-11-04T21:15:09.475Z,23.57
2018-11-04T21:17:39.085Z,24.90
2018-11-04T21:20:08.574Z,24.10
2018-11-04T21:22:37.992Z,24.17
2018-11-04T21:25:07.800Z,24.70
2018-11-04T21:27:37.079Z,22.30
2018-11-04T21:30:08.689Z,24.83
2018-11-04T21:32:37.909Z,24.23
2018-11-04T21:35:07.964Z,25.43
2018-11-04T21:37:37.146Z,25.87
2018-11-04T21:40:07.473Z,24.30
2018-11-04T21:42:36.843Z,24.70
2018-11-04T21:45:07.204Z,23.80
2018-11-04T21:47:36.399Z,22.53
2018-11-04T21:50:06.325Z,20.90
2018-11-04T21:52:35.670Z,23.93
2018-11-04T21:55:05.292Z,22.27
2018-11-04T21:57:34.725Z,25.33
2018-11-04T22:00:04.785Z,23.77
2018-11-04T22:02:34.356Z,22.97
2018-11-04T22:05:03.652Z,24.23
2018-11-04T22:07:32.896Z,23.27
2018-11-04T22:10:02.036Z,23.67
2018-11-04T22:12:31.291Z,23.00
2018-11-04T22:15:00.640Z,23.37
2018-11-04T22:17:30.000Z,22.90
2018-11-04T22:19:59.851Z,23.40
2018-11-04T22:22:28.885Z,23.70
2018-11-04T22:24:58.344Z,22.50
2018-11-04T22:27:27.939Z,22.17
2018-11-04T22:29:57.061Z,20.90
2018-11-04T22:32:26.411Z,21.43
2018-11-04T22:34:55.847Z,21.13
2018-11-04T22:37:25.088Z,20.90
2018-11-04T22:39:54.260Z,23.07
2018-11-04T22:42:23.698Z,26.07
2018-11-04T22:44:52.830Z,20.50
2018-11-04T22:47:22.357Z,22.37
2018-11-04T22:49:51.640Z,21.67
2018-11-04T22:52:20.852Z,23.77
2018-11-04T22:54:49.940Z,21.70
2018-11-04T22:57:19.043Z,22.50
2018-11-04T22:59:48.333Z,23.17
2018-11-04T23:02:18.013Z,23.67
2018-11-04T23:04:52.207Z,22.93
2018-11-04T23:07:21.655Z,23.00
2018-11-04T23:09:51.038Z,22.20
2018-11-04T23:12:23.215Z,21.77
2018-11-04T23:14:52.675Z,21.70
2018-11-04T23:17:22.103Z,20.10
2018-11-04T23:19:51.100Z,22.47
2018-11-04T23:22:20.129Z,23.80
2018-11-04T23:24:49.386Z,22.90
2018-11-04T23:27:18.803Z,20.20
2018-11-04T23:29:47.901Z,23.00
2018-11-04T23:32:17.080Z,23.50
2018-11-04T23:34:46.130Z,22.40
2018-11-04T23:37:15.217Z,24.40
2018-11-04T23:39:44.318Z,23.50
2018-11-04T23:42:13.365Z,22.90
2018-11-04T23:44:42.529Z,23.10
2018-11-04T23:47:11.703Z,22.13
2018-11-04T23:49:40.927Z,22.57
2018-11-04T23:52:10.015Z,22.90
2018-11-04T23:54:39.130Z,25.53
2018-11-04T23:57:08.224Z,22.43
2018-11-04T23:59:37.430Z,23.90
